createdAt,value
2022-10-22T00:00:10.253Z,10.60
2022-10-22T00:02:37.358Z,10.60
2022-10-22T00:05:05.113Z,10.60
2022-10-22T00:07:33.002Z,10.60
2022-10-22T00:10:00.099Z,10.70
2022-10-22T00:12:27.425Z,10.70
2022-10-22T00:14:54.402Z,10.70
2022-10-22T00:17:21.920Z,10.70
2022-10-22T00:19:48.863Z,10.70
2022-10-22T00:22:15.854Z,10.70
2022-10-22T00:24:42.930Z,10.80
2022-10-22T00:27:12.011Z,10.80
2022-10-22T00:29:39.103Z,10.80
2022-10-22T00:32:07.749Z,10.80
2022-10-22T00:34:34.837Z,10.80
2022-10-22T00:37:01.819Z,10.90
2022-10-22T00:39:29.094Z,10.80
2022-10-22T00:41:57.490Z,10.90
2022-10-22T00:45:01.374Z,10.90
2022-10-22T00:47:33.436Z,10.90
2022-10-22T00:50:01.663Z,10.90
2022-10-22T00:52:29.290Z,10.90
2022-10-22T00:54:57.881Z,10.90
2022-10-22T00:57:24.962Z,10.90
2022-10-22T00:59:52.049Z,10.90
2022-10-22T01:02:19.083Z,10.90
2022-10-22T01:04:46.060Z,10.90
2022-10-22T01:07:24.802Z,10.90
2022-10-22T01:10:25.545Z,11.00
2022-10-22T01:13:11.659Z,11.00
2022-10-22T01:16:20.037Z,10.90
2022-10-22T01:19:04.921Z,11.00
2022-10-22T01:21:42.395Z,10.90
2022-10-22T01:24:33.597Z,11.00
2022-10-22T01:27:29.294Z,10.90
2022-10-22T01:30:04.283Z,10.90
2022-10-22T01:32:37.354Z,10.90
2022-10-22T01:35:09.755Z,10.80
2022-10-22T01:37:48.774Z,10.80
2022-10-22T01:40:16.987Z,10.80
2022-10-22T01:43:01.222Z,10.70
2022-10-22T01:45:32.970Z,10.70
2022-10-22T01:48:09.562Z,10.70
2022-10-22T01:50:39.722Z,10.70
2022-10-22T01:53:11.364Z,10.60
2022-10-22T01:55:53.134Z,10.70
2022-10-22T01:58:39.904Z,10.60
2022-10-22T02:01:16.211Z,10.60
2022-10-22T02:04:01.967Z,10.60
2022-10-22T02:06:31.387Z,10.50
2022-10-22T02:09:00.606Z,10.50
2022-10-22T02:11:28.146Z,10.40
2022-10-22T02:13:59.870Z,10.40
2022-10-22T02:16:47.491Z,10.40
2022-10-22T02:19:35.724Z,10.30
2022-10-22T02:22:03.919Z,10.30
2022-10-22T02:24:31.686Z,10.30
2022-10-22T02:27:24.225Z,10.30
2022-10-22T02:30:02.976Z,10.30
2022-10-22T02:32:39.224Z,10.20
2022-10-22T02:35:08.511Z,10.20
2022-10-22T02:37:36.644Z,10.20
2022-10-22T02:40:04.476Z,10.20
2022-10-22T02:42:31.594Z,10.20
2022-10-22T02:44:58.569Z,10.20
2022-10-22T02:47:25.572Z,10.20
2022-10-22T02:49:52.522Z,10.20
2022-10-22T02:52:20.023Z,10.20
2022-10-22T02:54:47.062Z,10.20
2022-10-22T02:57:14.104Z,10.20
2022-10-22T02:59:41.120Z,10.20
2022-10-22T03:02:08.108Z,10.20
2022-10-22T03:04:35.166Z,10.20
2022-10-22T03:07:02.128Z,10.20
2022-10-22T03:09:29.212Z,10.20
2022-10-22T03:11:56.154Z,10.20
2022-10-22T03:14:23.101Z,10.20
2022-10-22T03:16:50.062Z,10.20
2022-10-22T03:19:17.089Z,10.30
2022-10-22T03:21:57.646Z,10.20
2022-10-22T03:24:31.404Z,10.30
2022-10-22T03:26:59.150Z,10.30
2022-10-22T03:29:27.636Z,10.20
2022-10-22T03:31:55.212Z,10.20
2022-10-22T03:34:22.843Z,10.20
2022-10-22T03:36:51.374Z,10.10
2022-10-22T03:39:20.042Z,10.10
2022-10-22T03:41:48.260Z,10.00
2022-10-22T03:44:17.286Z,10.00
2022-10-22T03:46:44.495Z,10.00
2022-10-22T03:49:11.467Z,10.00
2022-10-22T03:51:38.502Z,10.00
2022-10-22T03:54:05.931Z,10.00
2022-10-22T03:56:33.065Z,9.90
2022-10-22T03:59:01.034Z,9.90
2022-10-22T04:01:31.175Z,9.90
2022-10-22T04:03:59.326Z,9.80
2022-10-22T04:06:26.303Z,9.80
2022-10-22T04:08:53.342Z,9.90
2022-10-22T04:11:20.306Z,9.90
2022-10-22T04:13:47.299Z,9.90
2022-10-22T04:16:15.403Z,9.90
2022-10-22T04:18:43.864Z,9.90
2022-10-22T04:21:12.977Z,10.00
2022-10-22T04:23:44.303Z,10.00
2022-10-22T04:26:11.274Z,10.10
2022-10-22T04:28:38.215Z,10.00
2022-10-22T04:31:11.989Z,10.00
2022-10-22T04:33:39.866Z,10.00
2022-10-22T04:36:15.444Z,10.00
2022-10-22T04:38:43.775Z,10.10
2022-10-22T04:41:16.132Z,10.10
2022-10-22T04:43:44.009Z,10.10
2022-10-22T04:46:12.525Z,10.10
2022-10-22T04:48:41.573Z,10.10
2022-10-22T04:51:11.520Z,10.20
2022-10-22T04:53:40.673Z,10.20
2022-10-22T04:56:16.514Z,10.20
2022-10-22T04:58:44.451Z,10.30
2022-10-22T05:01:33.896Z,10.30
2022-10-22T05:04:03.341Z,10.30
2022-10-22T05:06:32.542Z,10.30
2022-10-22T05:09:04.564Z,10.30
2022-10-22T05:11:35.502Z,10.30
2022-10-22T05:14:05.433Z,10.30
2022-10-22T05:16:34.794Z,10.30
2022-10-22T05:19:03.094Z,10.30
2022-10-22T05:21:30.349Z,10.20
2022-10-22T05:24:00.216Z,10.20
2022-10-22T05:26:28.802Z,10.10
2022-10-22T05:28:57.026Z,10.10
2022-10-22T05:31:24.217Z,10.10
2022-10-22T05:33:51.228Z,10.10
2022-10-22T05:36:21.453Z,10.10
2022-10-22T05:38:48.993Z,10.10
2022-10-22T05:41:25.463Z,10.10
2022-10-22T05:43:56.015Z,10.10
2022-10-22T05:46:25.006Z,10.20
2022-10-22T05:48:53.406Z,10.20
2022-10-22T05:51:21.083Z,10.20
2022-10-22T05:53:55.631Z,10.30
2022-10-22T05:56:22.961Z,10.30
2022-10-22T05:58:50.451Z,10.40
2022-10-22T06:01:41.124Z,10.40
2022-10-22T06:04:12.180Z,10.40
2022-10-22T06:06:50.238Z,10.40
2022-10-22T06:09:23.951Z,10.50
2022-10-22T06:11:51.206Z,10.40
2022-10-22T06:14:19.526Z,10.50
2022-10-22T06:16:46.768Z,10.50
2022-10-22T06:19:15.894Z,10.50
2022-10-22T06:21:43.671Z,10.50
2022-10-22T06:24:11.803Z,10.50
2022-10-22T06:26:39.245Z,10.60
2022-10-22T06:29:06.353Z,10.60
2022-10-22T06:31:37.138Z,10.70
2022-10-22T06:34:11.077Z,10.80
2022-10-22T06:36:38.205Z,10.90
2022-10-22T06:39:06.087Z,11.00
2022-10-22T06:41:33.078Z,11.00
2022-10-22T06:44:00.197Z,11.10
2022-10-22T06:46:27.327Z,11.20
2022-10-22T06:48:59.861Z,11.40
2022-10-22T06:51:27.767Z,11.40
2022-10-22T06:53:56.441Z,11.40
2022-10-22T06:56:25.272Z,11.50
2022-10-22T06:58:54.416Z,11.50
2022-10-22T07:01:31.567Z,11.50
2022-10-22T07:04:00.006Z,11.40
2022-10-22T07:06:28.378Z,11.50
2022-10-22T07:08:57.142Z,11.50
2022-10-22T07:11:29.898Z,11.50
2022-10-22T07:13:59.961Z,11.50
2022-10-22T07:16:32.066Z,11.50
2022-10-22T07:19:04.107Z,11.50
2022-10-22T07:21:31.943Z,11.40
2022-10-22T07:23:59.595Z,11.40
2022-10-22T07:26:31.231Z,11.40
2022-10-22T07:29:00.470Z,11.40
2022-10-22T07:31:27.532Z,11.30
2022-10-22T07:33:54.615Z,11.30
2022-10-22T07:36:21.845Z,11.30
2022-10-22T07:38:53.810Z,11.30
2022-10-22T07:41:20.781Z,11.40
2022-10-22T07:43:47.747Z,11.40
2022-10-22T07:46:14.793Z,11.50
2022-10-22T07:48:43.072Z,11.50
2022-10-22T07:51:10.440Z,11.50
2022-10-22T07:53:37.672Z,11.40
2022-10-22T07:56:04.882Z,11.40
2022-10-22T07:58:32.030Z,11.40
2022-10-22T08:01:06.194Z,11.40
2022-10-22T08:03:33.588Z,11.30
2022-10-22T08:06:01.279Z,11.30
2022-10-22T08:08:30.846Z,11.30
2022-10-22T08:11:00.842Z,11.20
2022-10-22T08:13:28.790Z,11.30
2022-10-22T08:15:57.559Z,11.20
2022-10-22T08:18:25.035Z,11.20
2022-10-22T08:20:54.118Z,11.10
2022-10-22T08:23:25.850Z,11.10
2022-10-22T08:25:56.486Z,11.10
2022-10-22T08:28:23.450Z,11.10
2022-10-22T08:30:50.595Z,11.10
2022-10-22T08:33:17.621Z,11.10
2022-10-22T08:35:49.956Z,11.10
2022-10-22T08:38:18.171Z,11.00
2022-10-22T08:40:50.283Z,11.00
2022-10-22T08:43:37.777Z,11.10
2022-10-22T08:46:14.079Z,11.10
2022-10-22T08:48:54.549Z,11.10
2022-10-22T08:51:29.012Z,11.20
2022-10-22T08:54:20.332Z,11.10
2022-10-22T08:57:16.247Z,11.20
2022-10-22T08:59:57.447Z,11.20
2022-10-22T09:03:11.813Z,11.20
2022-10-22T09:05:59.682Z,11.30
2022-10-22T09:08:26.852Z,11.30
2022-10-22T09:11:03.629Z,11.40
2022-10-22T09:13:31.010Z,11.50
2022-10-22T09:16:11.275Z,11.50
2022-10-22T09:19:07.287Z,11.60
2022-10-22T09:21:56.950Z,11.60
2022-10-22T09:24:47.706Z,11.60
2022-10-22T09:27:18.289Z,11.70
2022-10-22T09:29:46.984Z,11.70
2022-10-22T09:32:18.589Z,11.80
2022-10-22T09:34:49.787Z,11.80
2022-10-22T09:37:19.433Z,11.80
2022-10-22T09:39:53.011Z,11.90
2022-10-22T09:42:21.450Z,11.90
2022-10-22T09:44:58.062Z,11.90
2022-10-22T09:47:43.306Z,12.00
2022-10-22T09:50:22.501Z,12.10
2022-10-22T09:53:04.813Z,12.10
2022-10-22T09:55:32.976Z,12.10
2022-10-22T09:58:04.506Z,12.10
2022-10-22T10:00:33.194Z,12.10
2022-10-22T10:03:03.228Z,12.10
2022-10-22T10:05:35.565Z,12.10
2022-10-22T10:08:17.004Z,12.20
2022-10-22T10:11:26.715Z,12.20
2022-10-22T10:14:28.727Z,12.30
2022-10-22T10:17:14.642Z,12.30
2022-10-22T10:19:45.666Z,12.30
2022-10-22T10:22:51.447Z,12.30
2022-10-22T10:25:59.909Z,12.40
2022-10-22T10:28:51.787Z,12.40
2022-10-22T10:31:37.406Z,12.50
2022-10-22T10:34:20.546Z,12.50
2022-10-22T10:37:07.077Z,12.60
2022-10-22T10:40:04.982Z,12.60
2022-10-22T10:43:03.953Z,12.60
2022-10-22T10:45:56.211Z,12.60
2022-10-22T10:48:49.626Z,12.60
2022-10-22T10:51:26.607Z,12.60
2022-10-22T10:54:05.298Z,12.60
2022-10-22T10:56:56.720Z,12.60
2022-10-22T10:59:50.123Z,12.70
2022-10-22T11:02:26.104Z,12.70
2022-10-22T11:05:43.915Z,12.80
2022-10-22T11:08:22.464Z,12.80
2022-10-22T11:10:55.302Z,12.80
2022-10-22T11:13:30.445Z,12.80
2022-10-22T11:16:25.959Z,12.90
2022-10-22T11:19:50.936Z,13.10
2022-10-22T11:22:28.615Z,13.20
2022-10-22T11:24:59.102Z,13.30
2022-10-22T11:27:38.335Z,13.30
2022-10-22T11:30:21.682Z,13.40
2022-10-22T11:33:06.474Z,13.50
2022-10-22T11:35:41.973Z,13.60
2022-10-22T11:38:15.254Z,13.60
2022-10-22T11:40:59.843Z,13.60
2022-10-22T11:43:55.293Z,13.60
2022-10-22T11:46:22.182Z,13.60
2022-10-22T11:49:13.924Z,13.50
2022-10-22T11:51:43.442Z,13.50
2022-10-22T11:54:42.831Z,13.50
2022-10-22T11:57:15.790Z,13.50
2022-10-22T11:59:52.446Z,13.50
2022-10-22T12:02:41.173Z,13.40
2022-10-22T12:05:39.355Z,13.40
2022-10-22T12:08:23.547Z,13.40
2022-10-22T12:11:12.416Z,13.30
2022-10-22T12:14:17.449Z,13.40
2022-10-22T12:16:57.823Z,13.40
2022-10-22T12:19:57.425Z,13.40
2022-10-22T12:22:32.321Z,13.50
2022-10-22T12:25:34.770Z,13.50
2022-10-22T12:28:05.456Z,13.50
2022-10-22T12:30:35.206Z,13.60
2022-10-22T12:33:08.057Z,13.60
2022-10-22T12:35:45.205Z,13.70
2022-10-22T12:38:26.662Z,13.80
2022-10-22T12:40:57.092Z,13.80
2022-10-22T12:43:33.098Z,13.70
2022-10-22T12:46:02.460Z,13.80
2022-10-22T12:48:37.463Z,13.80
2022-10-22T12:51:08.174Z,13.90
2022-10-22T12:53:40.262Z,13.80
2022-10-22T12:56:14.338Z,13.80
2022-10-22T12:58:54.013Z,13.80
2022-10-22T13:01:23.470Z,13.80
2022-10-22T13:04:04.918Z,13.80
2022-10-22T13:06:36.995Z,13.80
2022-10-22T13:09:27.691Z,13.80
2022-10-22T13:12:01.856Z,13.80
2022-10-22T13:14:38.371Z,13.80
2022-10-22T13:17:09.734Z,13.80
2022-10-22T13:19:44.955Z,13.80
2022-10-22T13:22:36.803Z,13.90
2022-10-22T13:25:22.403Z,13.90
2022-10-22T13:27:56.217Z,13.90
2022-10-22T13:30:26.156Z,13.90
2022-10-22T13:32:56.936Z,13.90
2022-10-22T13:35:27.948Z,14.00
2022-10-22T13:37:55.122Z,14.00
2022-10-22T13:40:22.201Z,14.00
2022-10-22T13:42:49.203Z,14.10
2022-10-22T13:45:17.856Z,14.10
2022-10-22T13:47:55.669Z,14.10
2022-10-22T13:50:22.889Z,14.10
2022-10-22T13:52:55.147Z,14.00
2022-10-22T13:55:30.432Z,14.00
2022-10-22T13:58:25.048Z,14.10
2022-10-22T14:01:02.178Z,14.10
2022-10-22T14:03:35.388Z,14.10
2022-10-22T14:06:02.371Z,14.20
2022-10-22T14:08:29.409Z,14.20
2022-10-22T14:10:56.613Z,14.20
2022-10-22T14:13:23.823Z,14.20
2022-10-22T14:15:52.398Z,14.20
2022-10-22T14:18:29.097Z,14.20
2022-10-22T14:20:59.093Z,14.20
2022-10-22T14:23:29.936Z,14.20
2022-10-22T14:25:57.067Z,14.20
2022-10-22T14:28:24.092Z,14.20
2022-10-22T14:30:52.171Z,14.20
2022-10-22T14:33:29.012Z,14.20
2022-10-22T14:36:00.763Z,14.20
2022-10-22T14:38:28.106Z,14.20
2022-10-22T14:40:56.027Z,14.20
2022-10-22T14:43:25.762Z,14.20
2022-10-22T14:45:52.983Z,14.20
2022-10-22T14:50:52.511Z,14.10
2022-10-22T14:53:19.607Z,14.10
2022-10-22T14:55:49.304Z,14.00
2022-10-22T14:58:16.513Z,14.10
2022-10-22T15:00:44.757Z,14.10
2022-10-22T15:03:12.258Z,14.10
2022-10-22T15:05:45.852Z,14.00
2022-10-22T15:08:14.950Z,14.00
2022-10-22T15:10:42.199Z,14.00
2022-10-22T15:13:09.677Z,14.00
2022-10-22T15:15:40.189Z,14.00
2022-10-22T15:18:07.580Z,13.90
2022-10-22T15:20:34.676Z,13.90
2022-10-22T15:23:01.734Z,13.90
2022-10-22T15:25:29.081Z,13.90
2022-10-22T15:28:00.672Z,13.80
2022-10-22T15:30:34.866Z,13.80
2022-10-22T15:33:02.506Z,13.80
2022-10-22T15:35:29.833Z,13.80
2022-10-22T15:37:58.361Z,13.80
2022-10-22T15:40:25.321Z,13.80
2022-10-22T15:42:52.365Z,13.80
2022-10-22T15:45:21.493Z,13.80
2022-10-22T15:47:49.582Z,13.80
2022-10-22T15:50:18.244Z,13.80
2022-10-22T15:52:45.342Z,13.80
2022-10-22T15:57:40.925Z,13.80
2022-10-22T16:00:09.938Z,13.80
2022-10-22T16:02:37.160Z,13.80
2022-10-22T16:05:04.479Z,13.80
2022-10-22T16:07:31.479Z,13.80
2022-10-22T16:10:00.336Z,13.80
2022-10-22T16:12:27.579Z,13.80
2022-10-22T16:14:54.585Z,13.70
2022-10-22T16:17:21.694Z,13.70
2022-10-22T16:19:48.984Z,13.70
2022-10-22T16:22:16.305Z,13.70
2022-10-22T16:24:43.401Z,13.70
2022-10-22T16:27:10.943Z,13.60
2022-10-22T16:29:39.503Z,13.60
2022-10-22T16:32:07.974Z,13.60
2022-10-22T16:34:35.229Z,13.60
2022-10-22T16:37:03.174Z,13.60
2022-10-22T16:39:30.297Z,13.60
2022-10-22T16:41:57.460Z,13.70
2022-10-22T16:44:24.995Z,13.60
2022-10-22T16:46:52.039Z,13.60
2022-10-22T16:49:19.183Z,13.60
2022-10-22T16:51:46.369Z,13.50
2022-10-22T16:54:15.899Z,13.40
2022-10-22T16:56:42.850Z,13.40
2022-10-22T16:59:11.308Z,13.30
2022-10-22T17:01:41.291Z,13.20
2022-10-22T17:04:10.311Z,13.20
2022-10-22T17:06:38.205Z,13.10
2022-10-22T17:09:06.243Z,13.10
2022-10-22T17:11:37.195Z,13.00
2022-10-22T17:14:06.933Z,13.00
2022-10-22T17:16:34.425Z,13.00
2022-10-22T17:19:05.488Z,13.00
2022-10-22T17:21:34.627Z,13.00
2022-10-22T17:24:02.694Z,13.00
2022-10-22T17:26:33.560Z,13.00
2022-10-22T17:29:01.266Z,12.90
2022-10-22T17:31:37.944Z,12.90
2022-10-22T17:34:09.049Z,12.90
2022-10-22T17:36:37.354Z,12.90
2022-10-22T17:39:08.574Z,12.90
2022-10-22T17:41:37.687Z,12.80
2022-10-22T17:44:09.591Z,12.80
2022-10-22T17:46:38.308Z,12.80
2022-10-22T17:49:12.800Z,12.80
2022-10-22T17:51:41.173Z,12.80
2022-10-22T17:54:10.437Z,12.80
2022-10-22T17:56:40.693Z,12.80
2022-10-22T17:59:10.317Z,12.80
2022-10-22T18:01:40.833Z,12.80
2022-10-22T18:04:14.568Z,12.80
2022-10-22T18:06:42.671Z,12.80
2022-10-22T18:09:14.463Z,12.70
2022-10-22T18:11:46.986Z,12.70
2022-10-22T18:14:14.807Z,12.70
2022-10-22T18:16:42.622Z,12.70
2022-10-22T18:19:11.814Z,12.60
2022-10-22T18:21:39.584Z,12.60
2022-10-22T18:24:07.642Z,12.60
2022-10-22T18:26:36.815Z,12.50
2022-10-22T18:29:06.427Z,12.50
2022-10-22T18:31:34.726Z,12.40
2022-10-22T18:34:02.323Z,12.40
2022-10-22T18:36:29.906Z,12.40
2022-10-22T18:39:01.047Z,12.30
2022-10-22T18:41:33.577Z,12.30
2022-10-22T18:44:03.851Z,12.30
2022-10-22T18:46:35.148Z,12.30
2022-10-22T18:49:03.192Z,12.20
2022-10-22T18:51:32.288Z,12.20
2022-10-22T18:54:11.301Z,12.20
2022-10-22T18:56:50.593Z,12.10
2022-10-22T18:59:21.670Z,12.00
2022-10-22T19:01:49.749Z,12.00
2022-10-22T19:04:17.475Z,12.00
2022-10-22T19:06:45.947Z,11.90
2022-10-22T19:09:16.242Z,11.90
2022-10-22T19:11:45.814Z,11.80
2022-10-22T19:14:15.282Z,11.80
2022-10-22T19:16:42.868Z,11.80
2022-10-22T19:19:12.160Z,11.80
2022-10-22T19:21:39.837Z,11.80
2022-10-22T19:24:09.158Z,11.70
2022-10-22T19:26:37.472Z,11.70
2022-10-22T19:29:05.742Z,11.70
2022-10-22T19:31:33.698Z,11.60
2022-10-22T19:34:03.927Z,11.60
2022-10-22T19:36:33.037Z,11.60
2022-10-22T19:39:00.955Z,11.60
2022-10-22T19:41:30.829Z,11.50
2022-10-22T19:44:00.112Z,11.50
2022-10-22T19:46:30.705Z,11.40
2022-10-22T19:48:58.371Z,11.40
2022-10-22T19:51:30.925Z,11.30
2022-10-22T19:54:03.596Z,11.30
2022-10-22T19:56:31.603Z,11.30
2022-10-22T19:58:59.258Z,11.20
2022-10-22T20:01:27.717Z,11.20
2022-10-22T20:03:55.027Z,11.10
2022-10-22T20:06:23.417Z,11.10
2022-10-22T20:08:53.758Z,11.00
2022-10-22T20:11:26.849Z,11.00
2022-10-22T20:13:54.609Z,10.90
2022-10-22T20:16:24.627Z,11.00
2022-10-22T20:18:53.242Z,10.90
2022-10-22T20:21:21.102Z,10.90
2022-10-22T20:23:51.989Z,10.90
2022-10-22T20:26:20.068Z,10.80
2022-10-22T20:28:47.691Z,10.80
2022-10-22T20:31:20.695Z,10.80
2022-10-22T20:33:50.700Z,10.70
2022-10-22T20:36:21.485Z,10.70
2022-10-22T20:38:49.512Z,10.70
2022-10-22T20:41:22.901Z,10.70
2022-10-22T20:43:52.202Z,10.70
2022-10-22T20:46:25.912Z,10.60
2022-10-22T20:48:56.442Z,10.60
2022-10-22T20:51:23.607Z,10.50
2022-10-22T20:53:51.344Z,10.50
2022-10-22T20:56:19.502Z,10.40
2022-10-22T20:58:54.333Z,10.40
2022-10-22T21:01:24.063Z,10.40
2022-10-22T21:03:53.054Z,10.40
2022-10-22T21:06:23.363Z,10.30
2022-10-22T21:08:51.766Z,10.30
2022-10-22T21:11:19.836Z,10.30
2022-10-22T21:13:47.367Z,10.30
2022-10-22T21:16:15.723Z,10.30
2022-10-22T21:18:42.710Z,10.40
2022-10-22T21:21:11.926Z,10.40
2022-10-22T21:23:39.306Z,10.40
2022-10-22T21:26:06.618Z,10.40
2022-10-22T21:28:37.824Z,10.40
2022-10-22T21:31:07.561Z,10.40
2022-10-22T21:33:40.247Z,10.30
2022-10-22T21:36:09.249Z,10.30
2022-10-22T21:38:37.627Z,10.30
2022-10-22T21:41:06.643Z,10.20
2022-10-22T21:43:34.187Z,10.20
2022-10-22T21:46:10.495Z,10.20
2022-10-22T21:48:38.991Z,10.20
2022-10-22T21:51:17.470Z,10.20
2022-10-22T21:53:45.394Z,10.20
2022-10-22T21:56:25.314Z,10.20
2022-10-22T21:58:52.898Z,10.20
2022-10-22T22:01:20.017Z,10.10
2022-10-22T22:03:49.637Z,10.10
2022-10-22T22:06:21.299Z,10.10
2022-10-22T22:08:51.572Z,10.10
2022-10-22T22:11:22.030Z,10.10
2022-10-22T22:13:49.663Z,10.10
2022-10-22T22:16:27.086Z,10.00
2022-10-22T22:18:57.506Z,10.00
2022-10-22T22:21:24.663Z,10.00
2022-10-22T22:23:51.673Z,10.00
2022-10-22T22:26:26.663Z,9.90
2022-10-22T22:28:58.232Z,9.90
2022-10-22T22:31:27.708Z,9.90
2022-10-22T22:34:04.081Z,9.90
2022-10-22T22:36:37.132Z,9.90
2022-10-22T22:39:05.964Z,9.90
2022-10-22T22:41:33.730Z,9.80
2022-10-22T22:44:00.803Z,9.80
2022-10-22T22:46:27.915Z,9.80
2022-10-22T22:48:55.020Z,9.80
2022-10-22T22:51:22.124Z,9.80
2022-10-22T22:53:49.315Z,9.80
2022-10-22T22:56:22.050Z,9.80
2022-10-22T22:58:49.914Z,9.70
2022-10-22T23:01:23.861Z,9.70
2022-10-22T23:03:57.467Z,9.70
2022-10-22T23:06:26.228Z,9.70
2022-10-22T23:08:54.852Z,9.70
2022-10-22T23:11:23.201Z,9.70
2022-10-22T23:13:56.896Z,9.60
2022-10-22T23:16:26.033Z,9.60
2022-10-22T23:18:54.566Z,9.60
2022-10-22T23:21:27.356Z,9.60
2022-10-22T23:23:57.422Z,9.60
2022-10-22T23:26:29.802Z,9.50
2022-10-22T23:29:04.648Z,9.50
2022-10-22T23:31:31.858Z,9.50
2022-10-22T23:33:59.600Z,9.50
2022-10-22T23:36:27.049Z,9.40
2022-10-22T23:38:54.942Z,9.40
2022-10-22T23:41:22.248Z,9.40
2022-10-22T23:43:50.711Z,9.40
2022-10-22T23:46:18.067Z,9.30
2022-10-22T23:48:46.181Z,9.30
2022-10-22T23:51:15.861Z,9.30
2022-10-22T23:53:44.107Z,9.20
2022-10-22T23:56:17.866Z,9.20
2022-10-22T23:58:45.646Z,9.20
